createdAt,value
2023-01-06T00:00:35.689Z,11.40
2023-01-06T00:03:02.666Z,11.40
2023-01-06T00:05:29.731Z,11.50
2023-01-06T00:07:56.502Z,11.50
2023-01-06T00:10:23.630Z,11.50
2023-01-06T00:12:50.500Z,11.50
2023-01-06T00:15:18.574Z,11.40
2023-01-06T00:17:45.604Z,11.40
2023-01-06T00:20:13.533Z,11.40
2023-01-06T00:22:43.268Z,11.30
2023-01-06T00:25:10.725Z,11.30
2023-01-06T00:27:38.984Z,11.40
2023-01-06T00:30:07.060Z,11.40
2023-01-06T00:32:33.810Z,11.30
2023-01-06T00:35:00.500Z,11.30
2023-01-06T00:37:27.165Z,11.40
2023-01-06T00:39:53.868Z,11.40
2023-01-06T00:42:22.390Z,11.40
2023-01-06T00:44:49.375Z,11.40
2023-01-06T00:47:16.484Z,11.40
2023-01-06T00:49:43.147Z,11.40
2023-01-06T00:52:10.033Z,11.40
2023-01-06T00:54:37.148Z,11.40
2023-01-06T00:57:07.160Z,11.40
2023-01-06T00:59:34.224Z,11.40
2023-01-06T01:02:01.700Z,11.50
2023-01-06T01:04:29.241Z,11.40
2023-01-06T01:06:56.330Z,11.40
2023-01-06T01:09:29.878Z,11.40
2023-01-06T01:12:12.720Z,11.40
2023-01-06T01:14:48.529Z,11.30
2023-01-06T01:17:19.463Z,11.30
2023-01-06T01:19:46.738Z,11.30
2023-01-06T01:22:13.604Z,11.30
2023-01-06T01:24:40.333Z,11.30
2023-01-06T01:27:07.519Z,11.30
2023-01-06T01:29:34.510Z,11.30
2023-01-06T01:32:01.417Z,11.30
2023-01-06T01:34:28.092Z,11.30
2023-01-06T01:36:55.374Z,11.30
2023-01-06T01:39:24.561Z,11.30
2023-01-06T01:41:51.762Z,11.30
2023-01-06T01:44:49.414Z,11.30
2023-01-06T01:47:42.489Z,11.30
2023-01-06T01:50:25.587Z,11.20
2023-01-06T01:52:57.403Z,11.20
2023-01-06T01:55:27.064Z,11.20
2023-01-06T01:58:03.123Z,11.30
2023-01-06T02:00:29.843Z,11.20
2023-01-06T02:02:57.339Z,11.20
2023-01-06T02:05:27.106Z,11.20
2023-01-06T02:07:58.623Z,11.20
2023-01-06T02:10:25.966Z,11.30
2023-01-06T02:12:57.145Z,11.30
2023-01-06T02:15:29.901Z,11.20
2023-01-06T02:18:21.364Z,11.20
2023-01-06T02:20:55.585Z,11.20
2023-01-06T02:23:33.139Z,11.20
2023-01-06T02:26:20.965Z,11.30
2023-01-06T02:29:12.046Z,11.20
2023-01-06T02:31:41.855Z,11.30
2023-01-06T02:34:14.505Z,11.30
2023-01-06T02:37:07.003Z,11.30
2023-01-06T02:39:47.164Z,11.30
2023-01-06T02:42:20.067Z,11.30
2023-01-06T02:45:00.114Z,11.30
2023-01-06T02:47:48.658Z,11.30
2023-01-06T02:50:30.827Z,11.30
2023-01-06T02:53:37.817Z,11.30
2023-01-06T02:56:05.726Z,11.20
2023-01-06T02:59:01.359Z,11.20
2023-01-06T03:01:36.210Z,11.30
2023-01-06T03:04:07.258Z,11.20
2023-01-06T03:06:36.361Z,11.30
2023-01-06T03:09:05.295Z,11.30
2023-01-06T03:11:34.356Z,11.30
2023-01-06T03:14:32.033Z,11.20
2023-01-06T03:16:58.916Z,11.30
2023-01-06T03:19:26.092Z,11.30
2023-01-06T03:21:53.431Z,11.20
2023-01-06T03:24:20.342Z,11.30
2023-01-06T03:26:48.646Z,11.30
2023-01-06T03:29:18.298Z,11.30
2023-01-06T03:32:14.182Z,11.30
2023-01-06T03:34:52.896Z,11.30
2023-01-06T03:38:01.197Z,11.30
2023-01-06T03:40:35.562Z,11.30
2023-01-06T03:43:14.066Z,11.20
2023-01-06T03:46:14.021Z,11.30
2023-01-06T03:48:59.618Z,11.20
2023-01-06T03:51:58.299Z,11.30
2023-01-06T03:54:48.810Z,11.30
2023-01-06T03:57:30.935Z,11.30
2023-01-06T04:00:03.961Z,11.30
2023-01-06T04:02:31.114Z,11.30
2023-01-06T04:05:19.845Z,11.30
2023-01-06T04:07:47.213Z,11.30
2023-01-06T04:10:15.486Z,11.30
2023-01-06T04:12:42.162Z,11.30
2023-01-06T04:15:13.449Z,11.30
2023-01-06T04:17:41.580Z,11.20
2023-01-06T04:20:10.951Z,11.30
2023-01-06T04:22:37.627Z,11.30
2023-01-06T04:25:05.479Z,11.30
2023-01-06T04:27:32.473Z,11.30
2023-01-06T04:29:59.224Z,11.30
2023-01-06T04:32:25.946Z,11.30
2023-01-06T04:34:52.628Z,11.30
2023-01-06T04:37:20.689Z,11.30
2023-01-06T04:39:48.341Z,11.30
2023-01-06T04:42:15.050Z,11.20
2023-01-06T04:44:42.545Z,11.20
2023-01-06T04:47:10.498Z,11.20
2023-01-06T04:49:37.585Z,11.30
2023-01-06T04:52:05.507Z,11.20
2023-01-06T04:54:32.200Z,11.20
2023-01-06T04:56:58.904Z,11.20
2023-01-06T04:59:25.556Z,11.20
2023-01-06T05:01:52.291Z,11.20
2023-01-06T05:04:19.459Z,11.20
2023-01-06T05:06:46.252Z,11.20
2023-01-06T05:09:12.924Z,11.20
2023-01-06T05:11:39.686Z,11.30
2023-01-06T05:14:06.468Z,11.30
2023-01-06T05:16:34.757Z,11.20
2023-01-06T05:19:01.811Z,11.30
2023-01-06T05:21:32.299Z,11.30
2023-01-06T05:23:59.805Z,11.30
2023-01-06T05:26:27.818Z,11.30
2023-01-06T05:28:55.025Z,11.20
2023-01-06T05:31:21.957Z,11.20
2023-01-06T05:33:48.659Z,11.10
2023-01-06T05:36:17.164Z,11.10
2023-01-06T05:38:44.951Z,11.10
2023-01-06T05:41:11.981Z,11.10
2023-01-06T05:43:38.970Z,11.10
2023-01-06T05:46:08.524Z,11.10
2023-01-06T05:48:36.070Z,11.20
2023-01-06T05:51:08.749Z,11.20
2023-01-06T05:53:38.154Z,11.20
2023-01-06T05:56:06.578Z,11.20
2023-01-06T05:58:34.037Z,11.20
2023-01-06T06:01:04.823Z,11.30
2023-01-06T06:03:32.643Z,11.30
2023-01-06T06:06:04.583Z,11.30
2023-01-06T06:08:31.374Z,11.30
2023-01-06T06:11:06.774Z,11.20
2023-01-06T06:13:33.524Z,11.20
2023-01-06T06:16:11.321Z,11.10
2023-01-06T06:18:42.847Z,11.10
2023-01-06T06:21:14.847Z,11.10
2023-01-06T06:23:42.594Z,11.10
2023-01-06T06:26:11.281Z,11.10
2023-01-06T06:28:39.160Z,11.10
2023-01-06T06:31:20.608Z,11.10
2023-01-06T06:33:50.787Z,11.00
2023-01-06T06:36:17.773Z,11.00
2023-01-06T06:38:49.358Z,11.00
2023-01-06T06:41:16.361Z,11.00
2023-01-06T06:43:43.078Z,11.00
2023-01-06T06:46:10.730Z,11.00
2023-01-06T06:48:38.283Z,11.00
2023-01-06T06:51:10.963Z,11.10
2023-01-06T06:53:38.119Z,11.00
2023-01-06T06:56:06.492Z,11.00
2023-01-06T06:58:34.083Z,11.00
2023-01-06T07:01:11.278Z,11.00
2023-01-06T07:03:38.652Z,11.00
2023-01-06T07:06:08.009Z,11.00
2023-01-06T07:08:34.984Z,11.00
2023-01-06T07:11:02.060Z,11.00
2023-01-06T07:13:28.857Z,11.00
2023-01-06T07:15:55.620Z,11.10
2023-01-06T07:18:22.405Z,11.10
2023-01-06T07:20:50.828Z,11.00
2023-01-06T07:23:17.577Z,11.00
2023-01-06T07:25:44.257Z,11.00
2023-01-06T07:28:11.095Z,11.00
2023-01-06T07:30:37.916Z,11.00
2023-01-06T07:33:04.797Z,10.90
2023-01-06T07:35:31.499Z,10.90
2023-01-06T07:38:06.454Z,10.90
2023-01-06T07:40:33.355Z,10.90
2023-01-06T07:43:07.371Z,10.90
2023-01-06T07:45:34.443Z,10.90
2023-01-06T07:48:01.857Z,10.80
2023-01-06T07:50:29.666Z,10.80
2023-01-06T07:53:02.366Z,10.80
2023-01-06T07:55:30.355Z,10.80
2023-01-06T07:57:58.661Z,10.80
2023-01-06T08:00:25.884Z,10.80
2023-01-06T08:02:52.945Z,10.80
2023-01-06T08:05:19.758Z,10.70
2023-01-06T08:07:46.613Z,10.80
2023-01-06T08:10:13.400Z,10.80
2023-01-06T08:12:40.143Z,10.80
2023-01-06T08:15:07.283Z,10.80
2023-01-06T08:17:34.072Z,10.70
2023-01-06T08:20:00.850Z,10.70
2023-01-06T08:22:27.636Z,10.70
2023-01-06T08:24:54.323Z,10.70
2023-01-06T08:27:21.013Z,10.80
2023-01-06T08:29:50.046Z,10.80
2023-01-06T08:32:16.923Z,10.80
2023-01-06T08:34:43.632Z,10.80
2023-01-06T08:37:10.366Z,10.70
2023-01-06T08:39:37.033Z,10.70
2023-01-06T08:42:03.811Z,10.70
2023-01-06T08:44:30.748Z,10.60
2023-01-06T08:46:57.450Z,10.50
2023-01-06T08:49:24.207Z,10.50
2023-01-06T08:51:50.903Z,10.40
2023-01-06T08:54:17.605Z,10.40
2023-01-06T08:56:44.754Z,10.30
2023-01-06T08:59:14.976Z,10.30
2023-01-06T09:01:42.329Z,10.30
2023-01-06T09:04:10.216Z,10.20
2023-01-06T09:06:37.574Z,10.20
2023-01-06T09:09:06.565Z,10.20
2023-01-06T09:11:33.289Z,10.20
2023-01-06T09:14:00.239Z,10.10
2023-01-06T09:16:27.016Z,10.20
2023-01-06T09:18:53.773Z,10.20
2023-01-06T09:21:22.707Z,10.20
2023-01-06T09:23:49.846Z,10.10
2023-01-06T09:26:18.038Z,10.20
2023-01-06T09:28:45.090Z,10.20
2023-01-06T09:31:12.252Z,10.20
2023-01-06T09:33:39.397Z,10.20
2023-01-06T09:36:06.612Z,10.20
2023-01-06T09:38:33.253Z,10.20
2023-01-06T09:41:17.718Z,10.30
2023-01-06T09:44:17.167Z,10.30
2023-01-06T09:46:46.952Z,10.30
2023-01-06T09:49:42.463Z,10.30
2023-01-06T09:52:34.870Z,10.30
2023-01-06T09:55:33.349Z,10.40
2023-01-06T09:58:09.089Z,10.40
2023-01-06T10:03:03.732Z,10.40
2023-01-06T10:05:48.794Z,10.40
2023-01-06T10:08:42.175Z,10.30
2023-01-06T10:11:08.864Z,10.40
2023-01-06T10:13:51.753Z,10.30
2023-01-06T10:16:31.939Z,10.30
2023-01-06T10:19:14.304Z,10.30
2023-01-06T10:21:47.734Z,10.30
2023-01-06T10:24:20.902Z,10.30
2023-01-06T10:26:53.750Z,10.30
2023-01-06T10:29:21.280Z,10.30
2023-01-06T10:31:51.508Z,10.30
2023-01-06T10:34:22.248Z,10.30
2023-01-06T10:37:01.495Z,10.30
2023-01-06T10:39:29.707Z,10.30
2023-01-06T10:42:42.100Z,10.30
2023-01-06T10:45:12.917Z,10.30
2023-01-06T10:47:42.820Z,10.30
2023-01-06T10:50:15.328Z,10.30
2023-01-06T10:52:42.757Z,10.30
2023-01-06T10:55:40.231Z,10.40
2023-01-06T10:58:34.692Z,10.40
2023-01-06T11:01:11.984Z,10.40
2023-01-06T11:03:42.993Z,10.40
2023-01-06T11:06:18.639Z,10.50
2023-01-06T11:08:45.346Z,10.60
2023-01-06T11:11:27.618Z,10.60
2023-01-06T11:13:59.275Z,10.70
2023-01-06T11:16:29.634Z,10.80
2023-01-06T11:19:08.989Z,10.80
2023-01-06T11:21:48.813Z,10.80
2023-01-06T11:24:21.766Z,10.80
2023-01-06T11:26:57.367Z,10.80
2023-01-06T11:29:27.368Z,10.90
2023-01-06T11:31:55.389Z,10.90
2023-01-06T11:34:29.101Z,10.90
2023-01-06T11:36:57.081Z,10.90
2023-01-06T11:39:30.799Z,10.90
2023-01-06T11:42:05.077Z,10.90
2023-01-06T11:44:35.470Z,10.90
2023-01-06T11:47:15.974Z,10.80
2023-01-06T11:49:49.637Z,10.80
2023-01-06T11:52:36.633Z,10.80
2023-01-06T11:55:09.165Z,10.80
2023-01-06T11:58:18.993Z,10.70
2023-01-06T12:00:57.067Z,10.80
2023-01-06T12:03:44.079Z,10.70
2023-01-06T12:06:24.189Z,10.70
2023-01-06T12:09:02.161Z,10.80
2023-01-06T12:11:43.892Z,10.80
2023-01-06T12:14:29.644Z,10.90
2023-01-06T12:16:56.916Z,10.90
2023-01-06T12:19:32.081Z,10.90
2023-01-06T12:22:00.385Z,10.90
2023-01-06T12:24:28.748Z,11.00
2023-01-06T12:26:56.899Z,11.00
2023-01-06T12:29:23.965Z,11.00
2023-01-06T12:32:03.706Z,11.00
2023-01-06T12:34:47.748Z,11.00
2023-01-06T12:37:46.224Z,11.10
2023-01-06T12:40:29.480Z,11.10
2023-01-06T12:43:19.685Z,11.10
2023-01-06T12:46:04.598Z,11.10
2023-01-06T12:48:43.852Z,11.10
2023-01-06T12:51:19.922Z,11.10
2023-01-06T12:53:58.002Z,11.20
2023-01-06T12:56:30.891Z,11.20
2023-01-06T12:59:23.196Z,11.10
2023-01-06T13:02:23.999Z,11.20
2023-01-06T13:04:50.675Z,11.20
2023-01-06T13:07:39.636Z,11.20
2023-01-06T13:10:27.092Z,11.20
2023-01-06T13:13:01.295Z,11.20
2023-01-06T13:15:30.472Z,11.20
2023-01-06T13:18:31.714Z,11.20
2023-01-06T13:21:09.390Z,11.30
2023-01-06T13:24:15.085Z,11.20
2023-01-06T13:27:04.540Z,11.30
2023-01-06T13:29:50.592Z,11.30
2023-01-06T13:32:39.365Z,11.20
2023-01-06T13:35:27.177Z,11.20
2023-01-06T13:38:15.000Z,11.30
2023-01-06T13:40:42.629Z,11.30
2023-01-06T13:43:19.609Z,11.30
2023-01-06T13:45:49.679Z,11.30
2023-01-06T13:48:21.011Z,11.30
2023-01-06T13:50:47.934Z,11.30
2023-01-06T13:53:21.144Z,11.40
2023-01-06T13:55:48.096Z,11.30
2023-01-06T13:58:24.085Z,11.40
2023-01-06T14:01:20.125Z,11.30
2023-01-06T14:03:49.289Z,11.40
2023-01-06T14:06:40.047Z,11.40
2023-01-06T14:09:17.857Z,11.40
2023-01-06T14:11:45.210Z,11.30
2023-01-06T14:14:30.554Z,11.30
2023-01-06T14:16:58.112Z,11.40
2023-01-06T14:19:53.414Z,11.30
2023-01-06T14:22:24.671Z,11.30
2023-01-06T14:24:55.763Z,11.30
2023-01-06T14:27:47.565Z,11.30
2023-01-06T14:30:23.169Z,11.20
2023-01-06T14:32:49.873Z,11.20
2023-01-06T14:35:22.611Z,11.10
2023-01-06T14:37:53.111Z,11.10
2023-01-06T14:40:25.197Z,11.10
2023-01-06T14:42:52.637Z,11.00
2023-01-06T14:45:24.735Z,11.00
2023-01-06T14:47:56.239Z,10.90
2023-01-06T14:50:29.841Z,10.90
2023-01-06T14:53:24.963Z,10.90
2023-01-06T14:55:52.221Z,10.90
2023-01-06T14:58:33.813Z,10.80
2023-01-06T15:01:02.244Z,10.80
2023-01-06T15:03:30.743Z,10.80
2023-01-06T15:06:20.962Z,10.80
2023-01-06T15:08:48.292Z,10.80
2023-01-06T15:11:33.474Z,10.70
2023-01-06T15:14:00.261Z,10.70
2023-01-06T15:16:38.917Z,10.70
2023-01-06T15:19:13.346Z,10.70
2023-01-06T15:21:42.754Z,10.60
2023-01-06T15:24:23.772Z,10.60
2023-01-06T15:26:52.683Z,10.60
2023-01-06T15:29:22.976Z,10.60
2023-01-06T15:31:53.196Z,10.50
2023-01-06T15:34:40.036Z,10.50
2023-01-06T15:37:14.388Z,10.40
2023-01-06T15:39:42.649Z,10.40
2023-01-06T15:42:18.543Z,10.40
2023-01-06T15:44:59.586Z,10.40
2023-01-06T15:47:37.206Z,10.30
2023-01-06T15:50:07.745Z,10.30
2023-01-06T15:52:47.131Z,10.30
2023-01-06T15:55:25.494Z,10.20
2023-01-06T15:57:58.827Z,10.20
2023-01-06T16:00:29.391Z,10.20
2023-01-06T16:02:58.021Z,10.20
2023-01-06T16:05:45.800Z,10.20
2023-01-06T16:08:16.738Z,10.10
2023-01-06T16:10:45.585Z,10.10
2023-01-06T16:13:29.023Z,10.20
2023-01-06T16:16:24.228Z,10.10
2023-01-06T16:18:54.828Z,10.10
2023-01-06T16:21:30.197Z,10.00
2023-01-06T16:23:59.168Z,10.00
2023-01-06T16:26:29.242Z,10.00
2023-01-06T16:28:59.137Z,10.00
2023-01-06T16:31:34.373Z,10.00
2023-01-06T16:34:22.814Z,10.00
2023-01-06T16:36:50.471Z,10.00
2023-01-06T16:39:17.679Z,10.00
2023-01-06T16:42:45.278Z,9.90
2023-01-06T16:45:24.080Z,9.90
2023-01-06T16:47:51.259Z,9.90
2023-01-06T16:50:28.075Z,9.90
2023-01-06T16:53:05.952Z,9.90
2023-01-06T16:55:32.893Z,9.80
2023-01-06T16:58:00.579Z,9.80
2023-01-06T17:00:28.419Z,9.70
2023-01-06T17:02:55.245Z,9.70
2023-01-06T17:05:21.930Z,9.70
2023-01-06T17:07:49.690Z,9.70
2023-01-06T17:10:23.337Z,9.70
2023-01-06T17:13:17.786Z,9.60
2023-01-06T17:15:44.488Z,9.60
2023-01-06T17:18:19.970Z,9.60
2023-01-06T17:20:46.806Z,9.60
2023-01-06T17:23:13.482Z,9.60
2023-01-06T17:25:41.554Z,9.50
2023-01-06T17:28:21.684Z,9.50
2023-01-06T17:30:49.669Z,9.50
2023-01-06T17:33:17.265Z,9.50
2023-01-06T17:35:47.936Z,9.50
2023-01-06T17:38:22.059Z,9.40
2023-01-06T17:40:49.576Z,9.40
2023-01-06T17:43:37.048Z,9.40
2023-01-06T17:46:18.869Z,9.40
2023-01-06T17:48:46.947Z,9.40
2023-01-06T17:51:15.914Z,9.40
2023-01-06T17:54:01.623Z,9.40
2023-01-06T17:56:28.291Z,9.40
2023-01-06T17:58:54.957Z,9.40
2023-01-06T18:01:23.690Z,9.40
2023-01-06T18:03:51.960Z,9.40
2023-01-06T18:06:26.065Z,9.50
2023-01-06T18:09:07.306Z,9.50
2023-01-06T18:11:41.065Z,9.50
2023-01-06T18:14:38.893Z,9.50
2023-01-06T18:17:16.336Z,9.60
2023-01-06T18:19:43.023Z,9.60
2023-01-06T18:22:16.674Z,9.70
2023-01-06T18:24:44.386Z,9.70
2023-01-06T18:27:23.914Z,9.70
2023-01-06T18:29:51.810Z,9.70
2023-01-06T18:32:21.553Z,9.80
2023-01-06T18:34:56.711Z,9.80
2023-01-06T18:37:26.421Z,9.80
2023-01-06T18:39:57.710Z,9.80
2023-01-06T18:42:31.890Z,9.90
2023-01-06T18:45:07.765Z,9.90
2023-01-06T18:47:40.400Z,9.90
2023-01-06T18:50:37.746Z,9.90
2023-01-06T18:53:22.165Z,10.00
2023-01-06T18:55:55.067Z,10.10
2023-01-06T18:58:34.837Z,10.10
2023-01-06T19:01:11.974Z,10.10
2023-01-06T19:03:46.327Z,10.10
2023-01-06T19:06:19.069Z,10.10
2023-01-06T19:08:48.342Z,10.20
2023-01-06T19:11:26.863Z,10.20
2023-01-06T19:13:58.548Z,10.20
2023-01-06T19:16:43.852Z,10.20
2023-01-06T19:19:10.999Z,10.30
2023-01-06T19:21:38.384Z,10.30
2023-01-06T19:24:28.329Z,10.30
2023-01-06T19:27:00.126Z,10.40
2023-01-06T19:29:35.110Z,10.40
2023-01-06T19:32:15.025Z,10.40
2023-01-06T19:34:42.038Z,10.50
2023-01-06T19:37:18.443Z,10.50
2023-01-06T19:39:50.215Z,10.50
2023-01-06T19:42:19.855Z,10.60
2023-01-06T19:44:49.850Z,10.60
2023-01-06T19:47:25.541Z,10.60
2023-01-06T19:49:56.060Z,10.60
2023-01-06T19:52:33.341Z,10.70
2023-01-06T19:55:18.492Z,10.70
2023-01-06T19:57:52.491Z,10.80
2023-01-06T20:00:31.480Z,10.70
2023-01-06T20:03:01.956Z,10.80
2023-01-06T20:05:29.812Z,10.80
2023-01-06T20:07:56.490Z,10.80
2023-01-06T20:10:23.221Z,10.80
2023-01-06T20:12:49.975Z,10.80
2023-01-06T20:15:17.032Z,10.80
2023-01-06T20:17:43.775Z,10.80
2023-01-06T20:20:11.321Z,10.90
2023-01-06T20:22:38.037Z,10.90
2023-01-06T20:25:09.864Z,10.90
2023-01-06T20:27:36.570Z,11.00
2023-01-06T20:30:06.893Z,11.00
2023-01-06T20:32:33.583Z,11.10
2023-01-06T20:35:00.248Z,11.10
2023-01-06T20:37:26.899Z,11.10
2023-01-06T20:39:53.676Z,11.20
2023-01-06T20:42:21.365Z,11.20
2023-01-06T20:44:49.268Z,11.20
2023-01-06T20:47:16.012Z,11.30
2023-01-06T20:49:42.851Z,11.30
2023-01-06T20:52:09.662Z,11.30
2023-01-06T20:54:36.457Z,11.30
2023-01-06T20:57:03.149Z,11.30
2023-01-06T20:59:29.920Z,11.30
2023-01-06T21:01:56.755Z,11.30
2023-01-06T21:04:23.555Z,11.30
2023-01-06T21:06:50.233Z,11.30
2023-01-06T21:09:16.905Z,11.30
2023-01-06T21:11:43.561Z,11.30
2023-01-06T21:14:10.266Z,11.30
2023-01-06T21:16:37.247Z,11.30
2023-01-06T21:19:03.939Z,11.30
2023-01-06T21:21:30.651Z,11.30
2023-01-06T21:24:00.223Z,11.40
2023-01-06T21:26:27.183Z,11.40
2023-01-06T21:28:53.872Z,11.40
2023-01-06T21:31:20.523Z,11.40
2023-01-06T21:33:47.296Z,11.50
2023-01-06T21:36:14.083Z,11.50
2023-01-06T21:38:40.754Z,11.50
2023-01-06T21:41:26.050Z,11.50
2023-01-06T21:43:52.718Z,11.60
2023-01-06T21:46:19.493Z,11.60
2023-01-06T21:48:46.352Z,11.60
2023-01-06T21:51:13.230Z,11.60
2023-01-06T21:53:40.117Z,11.60
2023-01-06T21:56:08.538Z,11.60
2023-01-06T21:58:35.420Z,11.60
2023-01-06T22:01:02.202Z,11.60
2023-01-06T22:03:28.979Z,11.60
2023-01-06T22:05:55.925Z,11.60
2023-01-06T22:08:22.779Z,11.60
2023-01-06T22:10:49.661Z,11.60
2023-01-06T22:13:20.303Z,11.60
2023-01-06T22:15:47.330Z,11.70
2023-01-06T22:18:14.173Z,11.60
2023-01-06T22:20:41.028Z,11.70
2023-01-06T22:23:12.557Z,11.70
2023-01-06T22:25:39.293Z,11.70
2023-01-06T22:28:05.990Z,11.70
2023-01-06T22:30:32.874Z,11.80
2023-01-06T22:32:59.609Z,11.80
2023-01-06T22:35:26.753Z,11.80
2023-01-06T22:37:53.439Z,11.90
2023-01-06T22:40:20.614Z,11.80
2023-01-06T22:42:47.351Z,11.80
2023-01-06T22:45:14.154Z,11.90
2023-01-06T22:47:40.964Z,11.90
2023-01-06T22:50:08.393Z,11.80
2023-01-06T22:52:35.377Z,11.80
2023-01-06T22:55:02.422Z,11.80
2023-01-06T22:57:29.161Z,11.80
2023-01-06T22:59:58.323Z,11.80
2023-01-06T23:02:25.313Z,11.80
2023-01-06T23:04:52.118Z,11.80
2023-01-06T23:07:18.788Z,11.80
2023-01-06T23:09:45.519Z,11.80
2023-01-06T23:12:12.231Z,11.80
2023-01-06T23:14:38.902Z,11.80
2023-01-06T23:17:05.580Z,11.80
2023-01-06T23:19:32.217Z,12.10
2023-01-06T23:21:58.901Z,11.80
2023-01-06T23:24:25.667Z,11.80
2023-01-06T23:26:52.340Z,11.80
2023-01-06T23:29:19.038Z,11.80
2023-01-06T23:31:46.712Z,11.80
2023-01-06T23:34:15.826Z,11.90
2023-01-06T23:36:43.059Z,11.90
2023-01-06T23:39:13.641Z,11.90
2023-01-06T23:41:40.795Z,11.90
2023-01-06T23:44:10.140Z,11.80
2023-01-06T23:46:38.898Z,11.80
2023-01-06T23:49:06.882Z,11.80
2023-01-06T23:51:33.846Z,11.70
2023-01-06T23:54:01.808Z,11.70
2023-01-06T23:56:30.403Z,11.60
2023-01-06T23:58:58.556Z,11.60
